createdAt,value
2018-11-22T00:00:23.905Z,4.13
2018-11-22T00:03:08.205Z,4.18
2018-11-22T00:05:59.492Z,4.26
2018-11-22T00:08:43.651Z,4.19
2018-11-22T00:11:34.859Z,4.23
2018-11-22T00:14:18.600Z,4.27
2018-11-22T00:17:09.864Z,4.81
2018-11-22T00:19:55.960Z,5.22
2018-11-22T00:22:45.126Z,5.51
2018-11-22T00:25:36.360Z,5.44
2018-11-22T00:28:19.795Z,5.31
2018-11-22T00:31:13.951Z,5.30
2018-11-22T00:33:58.109Z,5.16
2018-11-22T00:36:46.631Z,4.91
2018-11-22T00:39:30.223Z,4.65
2018-11-22T00:42:21.432Z,4.57
2018-11-22T00:45:05.965Z,4.36
2018-11-22T00:48:00.451Z,4.27
2018-11-22T00:50:29.714Z,4.20
2018-11-22T00:53:20.951Z,4.19
2018-11-22T00:56:04.489Z,4.23
2018-11-22T00:58:55.700Z,4.32
2018-11-22T01:01:39.129Z,4.24
2018-11-22T01:04:32.379Z,4.25
2018-11-22T01:07:14.283Z,4.16
2018-11-22T01:10:05.725Z,4.20
2018-11-22T01:12:49.668Z,4.26
2018-11-22T01:15:40.877Z,4.16
2018-11-22T01:18:24.330Z,4.19
2018-11-22T01:21:17.722Z,4.19
2018-11-22T01:23:59.786Z,4.10
2018-11-22T01:26:51.037Z,4.14
2018-11-22T01:29:37.838Z,4.07
2018-11-22T01:32:26.378Z,4.06
2018-11-22T01:35:10.734Z,4.14
2018-11-22T01:38:01.980Z,4.10
2018-11-22T01:40:46.098Z,4.10
2018-11-22T01:43:37.367Z,4.09
2018-11-22T01:46:21.056Z,4.11
2018-11-22T01:49:12.313Z,4.11
2018-11-22T01:52:03.563Z,4.14
2018-11-22T01:54:55.010Z,4.11
2018-11-22T01:57:42.108Z,4.11
2018-11-22T02:00:30.255Z,4.15
2018-11-22T02:03:13.899Z,4.11
2018-11-22T02:06:05.099Z,4.11
2018-11-22T02:08:50.701Z,4.09
2018-11-22T02:11:41.402Z,4.13
2018-11-22T02:14:25.052Z,4.23
2018-11-22T02:17:16.338Z,4.16
2018-11-22T02:20:00.621Z,4.18
2018-11-22T02:22:51.975Z,4.22
2018-11-22T02:25:36.282Z,4.15
2018-11-22T02:28:27.483Z,4.14
2018-11-22T02:31:11.268Z,4.16
2018-11-22T02:34:02.926Z,4.16
2018-11-22T02:36:54.158Z,4.21
2018-11-22T02:39:39.947Z,4.16
2018-11-22T02:42:29.067Z,4.13
2018-11-22T02:45:14.295Z,4.15
2018-11-22T02:48:07.553Z,4.11
2018-11-22T02:50:49.643Z,4.13
2018-11-22T02:53:40.857Z,4.17
2018-11-22T02:56:24.333Z,4.17
2018-11-22T02:59:15.553Z,4.14
2018-11-22T03:01:59.295Z,4.15
2018-11-22T03:04:50.558Z,4.14
2018-11-22T03:07:34.388Z,4.19
2018-11-22T03:10:25.607Z,4.22
2018-11-22T03:13:09.537Z,4.20
2018-11-22T03:16:02.779Z,4.26
2018-11-22T03:18:44.266Z,4.28
2018-11-22T03:21:35.541Z,4.25
2018-11-22T03:24:19.070Z,4.27
2018-11-22T03:27:10.330Z,4.36
2018-11-22T03:29:53.950Z,4.30
2018-11-22T03:32:45.194Z,4.31
2018-11-22T03:35:29.493Z,4.34
2018-11-22T03:38:20.705Z,4.37
2018-11-22T03:41:04.450Z,4.29
2018-11-22T03:43:55.997Z,4.31
2018-11-22T03:46:39.442Z,4.27
2018-11-22T03:49:30.648Z,4.40
2018-11-22T03:52:14.965Z,4.29
2018-11-22T03:55:07.401Z,4.35
2018-11-22T03:57:51.428Z,4.28
2018-11-22T04:00:42.673Z,4.20
2018-11-22T04:03:26.927Z,4.26
2018-11-22T04:06:18.551Z,4.21
2018-11-22T04:09:04.330Z,4.10
2018-11-22T04:11:53.534Z,4.10
2018-11-22T04:14:37.121Z,4.16
2018-11-22T04:17:28.382Z,4.14
2018-11-22T04:20:14.587Z,4.14
2018-11-22T04:23:06.234Z,4.21
2018-11-22T04:25:49.515Z,4.19
2018-11-22T04:28:40.719Z,4.21
2018-11-22T04:31:27.247Z,4.24
2018-11-22T04:34:34.689Z,4.21
2018-11-22T04:37:18.414Z,4.31
2018-11-22T04:40:12.693Z,4.31
2018-11-22T04:42:57.012Z,4.19
2018-11-22T04:45:48.841Z,4.15
2018-11-22T04:48:33.127Z,4.16
2018-11-22T04:51:24.340Z,4.20
2018-11-22T04:54:08.072Z,4.18
2018-11-22T04:56:59.282Z,4.17
2018-11-22T04:59:50.049Z,4.05
2018-11-22T05:02:34.101Z,4.09
2018-11-22T05:05:18.706Z,4.06
2018-11-22T05:08:09.954Z,4.05
2018-11-22T05:10:53.825Z,4.02
2018-11-22T05:13:45.131Z,3.97
2018-11-22T05:16:28.674Z,3.94
2018-11-22T05:19:19.923Z,4.05
2018-11-22T05:22:03.970Z,4.00
2018-11-22T05:24:55.227Z,3.93
2018-11-22T05:27:41.588Z,3.96
2018-11-22T05:30:31.161Z,3.97
2018-11-22T05:33:14.867Z,3.94
2018-11-22T12:15:52.994Z,6.28
2018-11-22T12:18:23.739Z,6.19
2018-11-22T12:20:54.533Z,6.15
2018-11-22T12:23:25.373Z,6.21
2018-11-22T12:25:56.106Z,6.23
2018-11-22T12:28:26.923Z,6.24
2018-11-22T12:30:57.704Z,6.23
2018-11-22T12:33:44.542Z,6.20
2018-11-22T12:36:20.520Z,6.13
2018-11-22T12:38:51.339Z,6.18
2018-11-22T12:41:22.077Z,6.22
2018-11-22T12:43:52.928Z,6.08
2018-11-22T12:46:23.694Z,6.09
2018-11-22T12:48:54.467Z,6.12
2018-11-22T12:51:25.267Z,6.20
2018-11-22T12:53:55.973Z,6.18
2018-11-22T12:56:26.769Z,6.18
2018-11-22T12:58:57.527Z,6.20
2018-11-22T13:01:28.303Z,6.30
2018-11-22T13:03:59.122Z,6.30
2018-11-22T13:06:29.887Z,6.31
2018-11-22T13:09:00.657Z,6.25
2018-11-22T13:11:31.417Z,6.28
2018-11-22T13:14:02.166Z,6.40
2018-11-22T13:16:33.112Z,6.42
2018-11-22T13:19:03.949Z,6.46
2018-11-22T13:21:34.735Z,6.43
2018-11-22T13:24:06.106Z,6.42
2018-11-22T13:26:36.980Z,6.41
2018-11-22T13:29:07.744Z,6.45
2018-11-22T13:31:38.583Z,6.44
2018-11-22T13:34:09.361Z,6.46
2018-11-22T13:36:40.061Z,6.48
2018-11-22T13:39:11.847Z,6.48
2018-11-22T13:41:42.619Z,6.50
2018-11-22T13:44:13.559Z,6.51
2018-11-22T13:46:44.421Z,6.49
2018-11-22T13:49:15.243Z,6.49
2018-11-22T13:51:46.026Z,6.53
2018-11-22T13:54:16.811Z,6.57
2018-11-22T13:56:47.480Z,6.50
2018-11-22T13:59:18.230Z,6.49
2018-11-22T14:01:48.974Z,6.50
2018-11-22T14:04:19.983Z,6.73
2018-11-22T14:06:50.758Z,6.75
2018-11-22T14:09:21.559Z,6.57
2018-11-22T14:11:52.334Z,6.53
2018-11-22T14:14:23.138Z,6.50
2018-11-22T14:16:53.958Z,6.50
2018-11-22T14:19:24.727Z,6.46
2018-11-22T14:21:55.498Z,6.43
2018-11-22T14:24:27.028Z,6.48
2018-11-22T14:26:57.866Z,6.37
2018-11-22T14:29:28.724Z,6.28
2018-11-22T14:31:59.770Z,6.37
2018-11-22T14:34:30.524Z,6.45
2018-11-22T14:37:01.206Z,6.40
2018-11-22T14:39:32.042Z,6.32
2018-11-22T14:42:02.979Z,6.31
2018-11-22T14:44:33.872Z,6.27
2018-11-22T14:47:04.823Z,6.21
2018-11-22T14:49:35.590Z,6.29
2018-11-22T14:52:07.242Z,6.32
2018-11-22T14:54:38.027Z,6.30
2018-11-22T14:57:08.880Z,6.38
2018-11-22T14:59:39.576Z,6.33
2018-11-22T15:02:10.379Z,6.32
2018-11-22T15:04:41.054Z,6.41
2018-11-22T15:07:11.910Z,6.31
2018-11-22T15:09:42.708Z,6.35
2018-11-22T15:12:13.490Z,6.33
2018-11-22T15:14:44.284Z,6.39
2018-11-22T15:17:15.029Z,6.44
2018-11-22T15:19:45.746Z,6.42
2018-11-22T15:22:16.506Z,6.37
2018-11-22T15:24:47.321Z,6.38
2018-11-22T15:27:18.094Z,6.38
2018-11-22T15:29:48.849Z,6.27
2018-11-22T15:32:19.575Z,6.25
2018-11-22T15:34:50.317Z,6.19
2018-11-22T15:37:21.090Z,6.17
2018-11-22T15:39:51.942Z,6.13
2018-11-22T15:42:22.713Z,6.11
2018-11-22T15:44:53.422Z,6.03
2018-11-22T15:47:24.199Z,5.99
2018-11-22T15:49:54.938Z,6.01
2018-11-22T15:52:25.672Z,5.88
2018-11-22T15:54:56.452Z,5.83
2018-11-22T15:57:27.131Z,5.68
2018-11-22T15:59:58.017Z,5.59
2018-11-22T16:02:28.816Z,5.50
2018-11-22T16:04:59.570Z,5.53
2018-11-22T16:07:30.374Z,5.46
2018-11-22T16:10:01.118Z,5.45
2018-11-22T16:12:31.943Z,5.35
2018-11-22T16:15:02.664Z,5.38
2018-11-22T16:17:33.426Z,5.35
2018-11-22T16:20:04.307Z,5.28
2018-11-22T16:22:35.150Z,5.31
2018-11-22T16:25:07.809Z,5.27
2018-11-22T16:27:38.862Z,5.27
2018-11-22T16:30:17.211Z,5.27
2018-11-22T16:32:48.152Z,5.27
2018-11-22T16:35:19.933Z,5.21
2018-11-22T16:37:50.772Z,5.16
2018-11-22T16:40:25.020Z,5.10
2018-11-22T16:42:56.812Z,5.07
2018-11-22T16:45:30.664Z,5.09
2018-11-22T16:48:02.860Z,5.11
2018-11-22T16:50:34.646Z,4.99
2018-11-22T16:53:05.782Z,4.96
2018-11-22T16:55:36.614Z,4.97
2018-11-22T16:58:08.338Z,4.96
2018-11-22T17:00:40.014Z,4.89
2018-11-22T17:03:13.291Z,4.84
2018-11-22T17:05:44.677Z,4.84
2018-11-22T17:08:15.452Z,4.79
2018-11-22T17:13:48.390Z,4.66
2018-11-22T17:16:19.306Z,4.64
2018-11-22T17:18:50.564Z,4.63
2018-11-22T17:21:21.365Z,4.67
2018-11-22T17:23:52.214Z,4.65
2018-11-22T17:26:23.713Z,4.58
2018-11-22T17:31:39.935Z,4.48
2018-11-22T17:34:10.622Z,4.52
2018-11-22T17:36:41.317Z,4.52
2018-11-22T17:39:14.411Z,4.59
2018-11-22T17:41:45.076Z,4.56
2018-11-22T17:44:15.704Z,4.60
2018-11-22T17:46:46.417Z,4.51
2018-11-22T17:49:17.119Z,4.61
2018-11-22T17:51:47.935Z,4.53
2018-11-22T17:54:18.657Z,4.51
2018-11-22T17:56:49.443Z,4.51
2018-11-22T17:59:20.220Z,4.43
2018-11-22T18:01:51.049Z,4.44
2018-11-22T18:04:21.728Z,4.47
2018-11-22T18:06:52.452Z,4.45
2018-11-22T18:09:23.091Z,4.44
2018-11-22T18:11:53.732Z,4.35
2018-11-22T18:14:24.414Z,4.22
2018-11-22T18:16:55.069Z,4.17
2018-11-22T18:19:25.716Z,4.12
2018-11-22T18:21:56.479Z,4.10
2018-11-22T18:24:27.864Z,4.09
2018-11-22T18:26:58.506Z,4.13
2018-11-22T18:29:29.174Z,4.06
2018-11-22T18:31:59.827Z,3.97
2018-11-22T18:34:30.519Z,4.04
2018-11-22T18:37:01.154Z,4.04
2018-11-22T18:39:31.777Z,4.04
2018-11-22T18:42:02.387Z,4.07
2018-11-22T18:44:33.170Z,4.13
2018-11-22T18:47:03.916Z,4.04
2018-11-22T18:49:34.562Z,4.05
2018-11-22T18:52:05.234Z,3.93
2018-11-22T18:54:35.877Z,3.83
2018-11-22T18:57:06.885Z,3.77
2018-11-22T18:59:38.070Z,3.76
2018-11-22T19:02:09.084Z,3.81
2018-11-22T19:04:39.735Z,3.81
2018-11-22T19:07:10.509Z,3.71
2018-11-22T19:09:41.122Z,3.83
2018-11-22T19:12:11.860Z,3.85
2018-11-22T19:14:42.640Z,3.93
2018-11-22T19:17:13.505Z,3.84
2018-11-22T19:19:44.207Z,3.85
2018-11-22T19:22:15.167Z,3.84
2018-11-22T19:24:45.827Z,3.82
2018-11-22T19:27:17.043Z,3.78
2018-11-22T19:29:47.772Z,3.73
2018-11-22T19:32:18.741Z,3.64
2018-11-22T19:34:49.402Z,3.69
2018-11-22T19:37:20.050Z,3.78
2018-11-22T19:39:50.725Z,3.78
2018-11-22T19:42:21.382Z,3.73
2018-11-22T19:44:52.057Z,3.63
2018-11-22T19:47:22.743Z,3.65
2018-11-22T19:49:53.577Z,3.69
2018-11-22T19:52:24.273Z,3.60
2018-11-22T19:54:54.984Z,3.54
2018-11-22T19:57:25.662Z,3.56
2018-11-22T19:59:56.333Z,3.53
2018-11-22T20:02:27.006Z,3.55
2018-11-22T20:04:57.708Z,3.57
2018-11-22T20:07:28.413Z,3.61
2018-11-22T20:09:59.141Z,3.59
2018-11-22T20:12:30.145Z,3.60
2018-11-22T20:15:00.836Z,3.62
2018-11-22T20:17:31.529Z,3.59
2018-11-22T20:20:03.755Z,3.58
2018-11-22T20:22:34.948Z,3.55
2018-11-22T20:25:06.541Z,3.55
2018-11-22T20:27:38.387Z,3.60
2018-11-22T20:30:19.723Z,3.56
2018-11-22T20:32:50.711Z,3.58
2018-11-22T20:35:22.331Z,3.56
2018-11-22T20:37:53.850Z,3.51
2018-11-22T20:40:26.325Z,3.56
2018-11-22T20:42:57.717Z,3.46
2018-11-22T20:45:29.440Z,3.41
2018-11-22T20:48:01.738Z,3.44
2018-11-22T20:50:33.025Z,3.34
2018-11-22T20:53:03.713Z,3.26
2018-11-22T20:55:35.841Z,3.24
2018-11-22T20:58:07.112Z,3.18
2018-11-22T21:00:39.250Z,3.17
2018-11-22T21:03:09.964Z,3.22
2018-11-22T21:05:40.673Z,3.21
2018-11-22T21:08:11.364Z,3.21
2018-11-22T21:10:42.097Z,3.33
2018-11-22T21:13:12.764Z,3.23
2018-11-22T21:15:43.450Z,3.19
2018-11-22T21:18:14.123Z,3.17
2018-11-22T21:20:44.833Z,3.13
2018-11-22T21:23:15.488Z,3.07
2018-11-22T21:25:46.188Z,3.01
2018-11-22T21:28:16.802Z,3.04
2018-11-22T21:30:47.513Z,2.97
2018-11-22T21:33:18.208Z,2.82
2018-11-22T21:35:48.881Z,2.80
2018-11-22T21:38:19.541Z,2.87
2018-11-22T21:40:50.160Z,2.90
2018-11-22T21:43:20.884Z,2.81
2018-11-22T21:45:51.576Z,2.80
2018-11-22T21:48:22.273Z,2.91
2018-11-22T21:50:52.962Z,2.86
2018-11-22T21:53:23.641Z,2.99
2018-11-22T21:55:54.390Z,2.97
2018-11-22T21:58:25.096Z,2.97
2018-11-22T22:00:55.804Z,2.93
2018-11-22T22:03:26.536Z,2.79
2018-11-22T22:05:57.323Z,2.78
2018-11-22T22:08:27.946Z,2.77
2018-11-22T22:10:58.673Z,2.72
2018-11-22T22:13:29.380Z,2.67
2018-11-22T22:16:00.073Z,2.63
2018-11-22T22:18:30.735Z,2.58
2018-11-22T22:21:01.443Z,2.55
2018-11-22T22:23:32.046Z,2.47
2018-11-22T22:26:02.748Z,2.43
2018-11-22T22:28:33.394Z,2.40
2018-11-22T22:31:04.091Z,2.35
2018-11-22T22:33:34.836Z,2.30
2018-11-22T22:36:05.847Z,2.25
2018-11-22T22:38:36.548Z,2.20
2018-11-22T22:41:07.309Z,2.20
2018-11-22T22:43:38.036Z,2.24
2018-11-22T22:46:08.903Z,2.22
2018-11-22T22:48:39.544Z,2.30
2018-11-22T22:51:10.227Z,2.15
2018-11-22T22:53:40.941Z,2.10
2018-11-22T22:56:11.654Z,1.99
2018-11-22T22:58:42.316Z,2.05
2018-11-22T23:01:12.988Z,1.99
2018-11-22T23:03:43.771Z,1.87
2018-11-22T23:06:14.453Z,1.86
2018-11-22T23:08:45.193Z,1.85
2018-11-22T23:11:15.901Z,1.83
2018-11-22T23:13:46.557Z,1.78
2018-11-22T23:16:17.240Z,1.68
2018-11-22T23:18:47.888Z,1.63
2018-11-22T23:21:18.597Z,1.61
2018-11-22T23:23:49.282Z,1.73
2018-11-22T23:26:19.984Z,1.64
2018-11-22T23:28:50.718Z,1.58
2018-11-22T23:31:21.424Z,1.56
2018-11-22T23:33:52.096Z,1.55
2018-11-22T23:36:22.782Z,1.46
2018-11-22T23:38:53.435Z,1.50
2018-11-22T23:41:24.129Z,1.51
2018-11-22T23:43:54.750Z,1.61
2018-11-22T23:46:25.457Z,1.62
2018-11-22T23:48:56.141Z,1.68
2018-11-22T23:51:26.843Z,1.65
2018-11-22T23:53:57.554Z,1.62
2018-11-22T23:56:28.194Z,1.63
2018-11-22T23:58:58.901Z,1.61
